Terminal Aerodrome Forecast
Issued by NWS

Home | Current Version | Previous Version | Text Only | Print | Product List | Glossary On
Versions: 1 2 3 4 5 6 7 8 9 10 11 12 13 14
000
FTUS46 KPDT 290500
TAFYKM
TAF
KYKM 290538Z 2906/3006 29005KT 5SM -SHSN BR SCT010 BKN020
      TEMPO 2907/2910 2SM -SN BR VV010
     FM291500 34013G20KT P6SM SCT035 BKN060
     FM292000 34015G25KT P6SM FEW080
     FM300200 28015KT P6SM FEW060=

USA.gov is the U.S. government's official web portal to all federal, state and local government web resources and services.